createdAt,value
2023-02-27T00:00:04.202Z,1.43
2023-02-27T00:02:31.223Z,1.57
2023-02-27T00:04:58.053Z,1.40
2023-02-27T00:07:26.233Z,1.33
2023-02-27T00:09:53.381Z,1.40
2023-02-27T00:12:20.307Z,1.47
2023-02-27T00:14:46.908Z,1.30
2023-02-27T00:17:13.510Z,1.40
2023-02-27T00:19:43.017Z,1.40
2023-02-27T00:22:09.645Z,1.50
2023-02-27T00:24:36.312Z,1.50
2023-02-27T00:27:03.147Z,1.57
2023-02-27T00:29:29.747Z,1.50
2023-02-27T00:31:56.419Z,1.50
2023-02-27T00:34:24.231Z,1.60
2023-02-27T00:36:52.824Z,1.63
2023-02-27T00:39:19.447Z,1.53
2023-02-27T00:41:46.067Z,1.30
2023-02-27T00:44:12.695Z,1.63
2023-02-27T00:46:39.480Z,1.50
2023-02-27T00:49:06.076Z,1.60
2023-02-27T00:51:32.713Z,1.60
2023-02-27T00:53:59.272Z,1.57
2023-02-27T00:56:26.449Z,2.10
2023-02-27T00:58:53.182Z,1.40
2023-02-27T01:01:21.778Z,1.40
2023-02-27T01:03:48.448Z,1.47
2023-02-27T01:06:15.033Z,1.53
2023-02-27T01:08:41.666Z,1.30
2023-02-27T01:11:08.262Z,1.40
2023-02-27T01:13:34.865Z,1.40
2023-02-27T01:16:01.584Z,1.63
2023-02-27T01:18:28.897Z,1.50
2023-02-27T01:20:56.152Z,1.40
2023-02-27T01:23:23.629Z,1.17
2023-02-27T01:25:50.283Z,1.50
2023-02-27T01:28:17.116Z,1.37
2023-02-27T01:30:44.335Z,1.30
2023-02-27T01:33:14.317Z,1.40
2023-02-27T01:35:40.940Z,1.50
2023-02-27T01:38:07.879Z,1.40
2023-02-27T01:40:40.022Z,1.53
2023-02-27T01:43:10.336Z,1.60
2023-02-27T01:45:42.373Z,1.47
2023-02-27T01:48:16.384Z,1.43
2023-02-27T01:50:49.877Z,1.50
2023-02-27T01:53:18.788Z,1.60
2023-02-27T01:55:48.277Z,1.40
2023-02-27T01:58:15.982Z,1.47
2023-02-27T02:00:43.056Z,1.60
2023-02-27T02:03:31.185Z,1.67
2023-02-27T02:05:59.889Z,1.57
2023-02-27T02:08:30.098Z,1.57
2023-02-27T02:10:58.358Z,1.70
2023-02-27T02:13:25.775Z,1.70
2023-02-27T02:16:07.541Z,1.43
2023-02-27T02:19:16.310Z,1.77
2023-02-27T02:22:34.990Z,1.70
2023-02-27T02:25:29.455Z,1.50
2023-02-27T02:28:21.214Z,1.40
2023-02-27T02:31:10.181Z,1.30
2023-02-27T02:34:10.838Z,1.50
2023-02-27T02:37:03.745Z,1.40
2023-02-27T02:39:58.349Z,1.53
2023-02-27T02:42:31.789Z,1.63
2023-02-27T02:45:18.292Z,1.70
2023-02-27T02:48:17.486Z,1.70
2023-02-27T02:51:09.971Z,1.53
2023-02-27T02:53:51.093Z,1.60
2023-02-27T02:56:40.029Z,1.70
2023-02-27T02:59:17.320Z,1.73
2023-02-27T03:01:51.686Z,1.70
2023-02-27T03:04:32.067Z,1.40
2023-02-27T03:07:28.891Z,1.53
2023-02-27T03:10:33.252Z,1.53
2023-02-27T03:13:29.401Z,1.70
2023-02-27T03:16:09.280Z,1.57
2023-02-27T03:18:50.136Z,1.80
2023-02-27T03:21:24.470Z,1.70
2023-02-27T03:23:54.404Z,1.67
2023-02-27T03:26:29.497Z,1.70
2023-02-27T03:29:00.952Z,1.70
2023-02-27T03:31:38.277Z,1.50
2023-02-27T03:34:35.360Z,1.63
2023-02-27T03:37:15.230Z,1.70
2023-02-27T03:39:49.231Z,1.40
2023-02-27T03:42:22.946Z,1.50
2023-02-27T03:45:24.623Z,1.40
2023-02-27T03:47:51.972Z,1.33
2023-02-27T03:50:19.114Z,1.63
2023-02-27T03:52:46.352Z,1.47
2023-02-27T03:55:19.290Z,1.60
2023-02-27T03:57:48.104Z,1.40
2023-02-27T04:00:18.808Z,1.50
2023-02-27T04:02:47.278Z,1.80
2023-02-27T04:05:18.752Z,1.40
2023-02-27T04:07:53.802Z,1.50
2023-02-27T04:11:15.161Z,1.40
2023-02-27T04:13:44.684Z,1.80
2023-02-27T04:16:24.204Z,1.30
2023-02-27T04:18:57.880Z,1.60
2023-02-27T04:21:35.221Z,1.40
2023-02-27T04:24:07.516Z,1.27
2023-02-27T04:26:49.228Z,1.77
2023-02-27T04:29:27.252Z,1.70
2023-02-27T04:32:02.543Z,1.30
2023-02-27T04:34:43.880Z,1.30
2023-02-27T04:37:17.908Z,1.50
2023-02-27T04:39:58.339Z,1.20
2023-02-27T04:42:30.263Z,1.53
2023-02-27T04:45:00.689Z,1.70
2023-02-27T04:47:31.336Z,1.40
2023-02-27T04:50:21.882Z,1.23
2023-02-27T04:53:00.037Z,1.67
2023-02-27T04:55:49.390Z,1.50
2023-02-27T04:58:25.441Z,1.37
2023-02-27T05:00:57.505Z,1.40
2023-02-27T05:03:28.891Z,1.50
2023-02-27T05:06:00.056Z,1.20
2023-02-27T05:08:44.758Z,1.57
2023-02-27T05:11:23.711Z,1.70
2023-02-27T05:13:58.983Z,1.60
2023-02-27T05:16:40.061Z,1.40
2023-02-27T05:19:08.068Z,1.40
2023-02-27T05:21:46.162Z,1.40
2023-02-27T05:24:46.839Z,1.40
2023-02-27T05:27:22.408Z,1.50
2023-02-27T05:29:51.120Z,1.50
2023-02-27T05:32:59.383Z,1.30
2023-02-27T05:35:38.269Z,1.33
2023-02-27T05:38:06.775Z,1.40
2023-02-27T05:40:39.543Z,1.40
2023-02-27T05:43:10.902Z,1.53
2023-02-27T05:45:41.092Z,1.40
2023-02-27T05:48:19.706Z,1.30
2023-02-27T05:50:51.743Z,1.40
2023-02-27T05:53:21.072Z,1.23
2023-02-27T05:55:52.697Z,1.87
2023-02-27T05:58:24.497Z,1.40
2023-02-27T06:00:58.763Z,1.50
2023-02-27T06:03:27.017Z,1.33
2023-02-27T06:05:55.312Z,1.50
2023-02-27T06:08:22.216Z,1.27
2023-02-27T06:10:49.961Z,1.50
2023-02-27T06:13:19.610Z,1.30
2023-02-27T06:15:46.740Z,1.33
2023-02-27T06:18:15.100Z,1.10
2023-02-27T06:20:43.109Z,1.50
2023-02-27T06:23:10.676Z,1.30
2023-02-27T06:25:37.575Z,1.30
2023-02-27T06:28:05.045Z,1.20
2023-02-27T06:30:31.669Z,1.40
2023-02-27T06:32:58.300Z,1.20
2023-02-27T06:35:24.912Z,1.37
2023-02-27T06:37:51.457Z,1.30
2023-02-27T06:40:19.162Z,1.10
2023-02-27T06:42:45.872Z,1.40
2023-02-27T06:45:14.177Z,1.67
2023-02-27T06:47:41.900Z,1.23
2023-02-27T06:50:11.303Z,1.50
2023-02-27T06:52:38.994Z,1.30
2023-02-27T06:55:07.380Z,1.23
2023-02-27T06:57:34.058Z,1.30
2023-02-27T07:00:00.774Z,1.30
2023-02-27T07:02:27.336Z,1.30
2023-02-27T07:04:53.999Z,1.20
2023-02-27T07:07:34.310Z,1.40
2023-02-27T07:10:06.533Z,1.20
2023-02-27T07:12:33.156Z,1.57
2023-02-27T07:15:00.132Z,1.53
2023-02-27T07:17:26.748Z,1.20
2023-02-27T07:19:53.321Z,1.00
2023-02-27T07:22:19.943Z,1.33
2023-02-27T07:24:46.501Z,1.10
2023-02-27T07:27:13.094Z,1.30
2023-02-27T07:29:39.678Z,1.20
2023-02-27T07:32:06.448Z,1.30
2023-02-27T07:34:33.132Z,1.10
2023-02-27T07:36:59.713Z,1.10
2023-02-27T07:39:26.351Z,1.17
2023-02-27T07:41:52.915Z,1.20
2023-02-27T07:44:19.800Z,1.23
2023-02-27T07:46:47.439Z,1.20
2023-02-27T07:49:14.217Z,1.20
2023-02-27T07:51:41.199Z,1.33
2023-02-27T07:54:07.876Z,1.30
2023-02-27T07:56:34.629Z,1.30
2023-02-27T07:59:01.301Z,1.60
2023-02-27T08:01:27.960Z,1.10
2023-02-27T08:03:55.348Z,1.50
2023-02-27T08:06:22.220Z,1.27
2023-02-27T08:08:48.827Z,1.40
2023-02-27T08:11:15.590Z,1.13
2023-02-27T08:13:59.512Z,1.40
2023-02-27T08:16:27.355Z,1.17
2023-02-27T08:18:54.634Z,1.00
2023-02-27T08:21:21.215Z,1.20
2023-02-27T08:23:48.073Z,0.90
2023-02-27T08:26:15.135Z,1.40
2023-02-27T08:28:41.790Z,1.17
2023-02-27T08:31:08.754Z,1.50
2023-02-27T08:33:36.413Z,1.30
2023-02-27T08:36:03.094Z,1.27
2023-02-27T08:38:29.732Z,1.20
2023-02-27T08:40:56.302Z,1.23
2023-02-27T08:43:23.767Z,1.20
2023-02-27T08:45:51.191Z,1.20
2023-02-27T08:48:18.583Z,1.30
2023-02-27T08:50:46.308Z,1.00
2023-02-27T08:53:13.357Z,1.20
2023-02-27T08:55:39.994Z,1.27
2023-02-27T08:58:06.610Z,1.20
2023-02-27T09:00:33.203Z,1.20
2023-02-27T09:03:01.330Z,0.90
2023-02-27T09:05:28.875Z,1.33
2023-02-27T09:07:55.561Z,1.27
2023-02-27T09:10:22.687Z,1.30
2023-02-27T09:12:49.410Z,1.30
2023-02-27T09:15:16.733Z,1.20
2023-02-27T09:17:43.504Z,1.20
2023-02-27T09:20:10.845Z,1.10
2023-02-27T09:22:37.887Z,1.17
2023-02-27T09:25:05.283Z,0.80
2023-02-27T09:27:31.866Z,1.30
2023-02-27T09:29:59.296Z,1.37
2023-02-27T09:32:27.324Z,1.40
2023-02-27T09:34:54.039Z,1.30
2023-02-27T09:37:20.745Z,1.27
2023-02-27T09:39:47.687Z,1.10
2023-02-27T09:42:17.126Z,1.20
2023-02-27T09:44:49.624Z,1.30
2023-02-27T09:47:51.139Z,1.30
2023-02-27T09:50:34.053Z,1.30
2023-02-27T09:53:00.983Z,1.20
2023-02-27T09:55:32.094Z,1.27
2023-02-27T09:58:36.533Z,1.37
2023-02-27T10:01:08.374Z,1.20
2023-02-27T10:04:05.698Z,1.43
2023-02-27T10:06:48.518Z,1.20
2023-02-27T10:09:30.225Z,1.40
2023-02-27T10:12:35.948Z,1.23
2023-02-27T10:15:12.888Z,1.27
2023-02-27T10:17:44.930Z,1.20
2023-02-27T10:20:22.542Z,1.17
2023-02-27T10:22:51.391Z,1.00
2023-02-27T10:25:30.716Z,1.00
2023-02-27T10:28:08.777Z,1.00
2023-02-27T10:30:35.688Z,0.83
2023-02-27T10:33:10.566Z,1.10
2023-02-27T10:35:43.929Z,0.70
2023-02-27T10:38:18.163Z,1.13
2023-02-27T10:40:46.259Z,0.90
2023-02-27T10:43:19.483Z,0.80
2023-02-27T10:45:46.145Z,1.07
2023-02-27T10:48:14.451Z,1.10
2023-02-27T10:50:43.560Z,0.87
2023-02-27T10:53:25.332Z,1.00
2023-02-27T10:56:00.199Z,0.80
2023-02-27T10:58:34.471Z,1.10
2023-02-27T11:01:07.049Z,1.00
2023-02-27T11:03:35.365Z,0.70
2023-02-27T11:06:06.734Z,1.03
2023-02-27T11:08:34.445Z,0.90
2023-02-27T11:11:11.863Z,1.00
2023-02-27T11:13:41.530Z,0.93
2023-02-27T11:16:13.037Z,0.90
2023-02-27T11:18:43.400Z,1.10
2023-02-27T11:21:21.185Z,1.10
2023-02-27T11:24:03.520Z,0.93
2023-02-27T11:26:41.429Z,0.97
2023-02-27T11:29:18.914Z,0.97
2023-02-27T11:31:50.821Z,1.00
2023-02-27T11:34:39.516Z,1.10
2023-02-27T11:37:18.684Z,1.00
2023-02-27T11:39:57.461Z,0.90
2023-02-27T11:42:30.568Z,0.90
2023-02-27T11:45:02.599Z,1.03
2023-02-27T11:47:38.989Z,0.90
2023-02-27T11:50:10.799Z,1.00
2023-02-27T11:52:58.885Z,0.90
2023-02-27T11:55:29.198Z,1.00
2023-02-27T11:58:04.719Z,1.17
2023-02-27T12:00:38.575Z,0.90
2023-02-27T12:03:27.790Z,0.80
2023-02-27T12:05:59.108Z,1.20
2023-02-27T12:08:53.886Z,1.03
2023-02-27T12:11:38.069Z,0.80
2023-02-27T12:14:16.530Z,1.07
2023-02-27T12:17:11.172Z,1.10
2023-02-27T12:19:55.927Z,1.10
2023-02-27T12:22:26.759Z,1.00
2023-02-27T12:25:03.252Z,0.80
2023-02-27T12:27:57.136Z,0.80
2023-02-27T12:30:31.784Z,0.90
2023-02-27T12:33:02.241Z,0.80
2023-02-27T12:35:35.163Z,0.60
2023-02-27T12:38:02.739Z,1.00
2023-02-27T12:40:58.598Z,1.00
2023-02-27T12:43:36.041Z,0.80
2023-02-27T12:46:17.244Z,0.90
2023-02-27T12:48:52.728Z,1.00
2023-02-27T12:51:35.064Z,1.00
2023-02-27T12:54:23.027Z,0.97
2023-02-27T12:57:08.258Z,1.00
2023-02-27T13:00:11.697Z,0.80
2023-02-27T13:02:49.109Z,0.83
2023-02-27T13:05:22.716Z,0.57
2023-02-27T13:08:00.744Z,0.80
2023-02-27T13:10:54.089Z,0.80
2023-02-27T13:13:38.680Z,0.87
2023-02-27T13:16:21.135Z,0.70
2023-02-27T13:18:54.915Z,0.80
2023-02-27T13:21:24.255Z,0.70
2023-02-27T13:24:10.028Z,0.80
2023-02-27T13:26:48.121Z,0.70
2023-02-27T13:29:17.098Z,0.90
2023-02-27T13:32:00.495Z,0.70
2023-02-27T13:35:01.653Z,0.90
2023-02-27T13:37:51.049Z,0.83
2023-02-27T13:40:29.833Z,0.70
2023-02-27T13:43:49.862Z,0.60
2023-02-27T13:46:25.099Z,0.63
2023-02-27T13:49:20.074Z,0.70
2023-02-27T13:51:56.712Z,0.60
2023-02-27T13:54:28.078Z,0.50
2023-02-27T13:56:54.602Z,0.60
2023-02-27T13:59:25.685Z,0.50
2023-02-27T14:02:10.578Z,0.60
2023-02-27T14:04:47.196Z,0.60
2023-02-27T14:07:21.401Z,0.70
2023-02-27T14:09:52.117Z,0.60
2023-02-27T14:12:45.784Z,0.60
2023-02-27T14:15:22.121Z,0.50
2023-02-27T14:17:52.537Z,0.43
2023-02-27T14:20:24.524Z,0.80
2023-02-27T14:23:16.010Z,0.60
2023-02-27T14:25:47.069Z,0.80
2023-02-27T14:28:26.306Z,0.53
2023-02-27T14:31:01.107Z,0.80
2023-02-27T14:33:40.994Z,0.60
2023-02-27T14:36:22.998Z,0.63
2023-02-27T14:38:50.948Z,0.50
2023-02-27T14:41:51.460Z,0.80
2023-02-27T14:44:24.274Z,0.57
2023-02-27T14:46:53.858Z,0.53
2023-02-27T14:49:29.809Z,0.70
2023-02-27T14:51:56.890Z,0.50
2023-02-27T14:54:25.915Z,0.50
2023-02-27T14:57:01.883Z,0.60
2023-02-27T14:59:33.986Z,0.53
2023-02-27T15:02:04.189Z,0.60
2023-02-27T15:04:33.177Z,0.60
2023-02-27T15:07:00.740Z,0.80
2023-02-27T15:09:35.608Z,0.60
2023-02-27T15:12:04.614Z,0.80
2023-02-27T15:14:36.173Z,0.60
2023-02-27T15:17:03.588Z,0.63
2023-02-27T15:19:35.270Z,0.70
2023-02-27T15:22:05.217Z,0.70
2023-02-27T15:24:49.740Z,0.67
2023-02-27T15:27:20.192Z,0.57
2023-02-27T15:29:55.987Z,0.60
2023-02-27T15:32:34.313Z,0.40
2023-02-27T15:35:14.778Z,0.60
2023-02-27T15:37:48.846Z,0.70
2023-02-27T15:40:21.185Z,0.50
2023-02-27T15:42:48.209Z,0.63
2023-02-27T15:45:20.390Z,0.67
2023-02-27T15:47:48.370Z,0.60
2023-02-27T15:50:17.935Z,0.57
2023-02-27T15:52:55.058Z,0.60
2023-02-27T15:55:25.666Z,0.63
2023-02-27T15:58:02.304Z,0.50
2023-02-27T16:00:31.696Z,0.60
2023-02-27T16:02:59.318Z,0.80
2023-02-27T16:05:36.689Z,0.60
2023-02-27T16:08:05.786Z,0.60
2023-02-27T16:10:40.516Z,0.40
2023-02-27T16:13:29.303Z,0.50
2023-02-27T16:16:00.221Z,0.57
2023-02-27T16:18:31.986Z,0.40
2023-02-27T16:21:11.966Z,0.60
2023-02-27T16:23:39.029Z,0.63
2023-02-27T16:26:32.102Z,0.60
2023-02-27T16:29:14.081Z,0.60
2023-02-27T16:31:47.787Z,0.60
2023-02-27T16:34:14.526Z,0.60
2023-02-27T16:36:43.176Z,0.70
2023-02-27T16:39:13.210Z,0.60
2023-02-27T16:41:39.794Z,0.50
2023-02-27T16:44:06.377Z,0.60
2023-02-27T16:46:32.934Z,0.73
2023-02-27T16:49:04.452Z,0.80
2023-02-27T16:51:37.609Z,0.50
2023-02-27T16:54:04.553Z,0.50
2023-02-27T16:56:38.094Z,0.90
2023-02-27T16:59:06.373Z,1.37
2023-02-27T17:01:34.205Z,0.60
2023-02-27T17:04:01.351Z,0.63
2023-02-27T17:06:28.632Z,0.80
2023-02-27T17:08:56.099Z,0.80
2023-02-27T17:11:22.785Z,0.67
2023-02-27T17:13:49.345Z,1.03
2023-02-27T17:16:16.164Z,0.83
2023-02-27T17:18:42.811Z,0.90
2023-02-27T17:21:09.401Z,0.87
2023-02-27T17:23:35.977Z,0.80
2023-02-27T17:26:02.603Z,0.70
2023-02-27T17:28:29.307Z,0.70
2023-02-27T17:30:55.927Z,0.60
2023-02-27T17:33:22.568Z,0.67
2023-02-27T17:35:49.399Z,0.70
2023-02-27T17:38:15.956Z,0.63
2023-02-27T17:40:42.542Z,0.90
2023-02-27T17:43:09.152Z,0.77
2023-02-27T17:45:35.836Z,0.60
2023-02-27T17:48:02.616Z,0.73
2023-02-27T17:50:32.036Z,0.80
2023-02-27T17:52:58.600Z,0.70
2023-02-27T17:55:25.293Z,0.70
2023-02-27T17:57:51.910Z,0.67
2023-02-27T18:00:19.205Z,0.90
2023-02-27T18:02:46.122Z,0.60
2023-02-27T18:05:13.265Z,0.60
2023-02-27T18:07:40.596Z,1.00
2023-02-27T18:10:09.114Z,0.73
2023-02-27T18:12:36.920Z,0.80
2023-02-27T18:15:05.904Z,0.70
2023-02-27T18:17:33.063Z,0.73
2023-02-27T18:19:59.863Z,0.70
2023-02-27T18:22:27.256Z,0.83
2023-02-27T18:24:54.752Z,0.77
2023-02-27T18:27:22.206Z,0.80
2023-02-27T18:29:50.095Z,0.70
2023-02-27T18:32:17.519Z,0.80
2023-02-27T18:34:44.641Z,0.77
2023-02-27T18:37:11.480Z,0.60
2023-02-27T18:39:38.214Z,0.80
2023-02-27T18:42:06.684Z,0.90
2023-02-27T18:44:33.515Z,0.93
2023-02-27T18:47:00.134Z,0.67
2023-02-27T18:49:26.773Z,0.70
2023-02-27T18:51:53.356Z,0.70
2023-02-27T18:54:19.978Z,0.80
2023-02-27T18:56:48.535Z,0.90
2023-02-27T18:59:15.174Z,0.80
2023-02-27T19:01:41.829Z,0.83
2023-02-27T19:04:09.501Z,0.83
2023-02-27T19:06:43.186Z,1.00
2023-02-27T19:09:13.166Z,0.80
2023-02-27T19:11:40.322Z,0.80
2023-02-27T19:14:10.565Z,0.80
2023-02-27T19:16:37.260Z,0.70
2023-02-27T19:19:04.982Z,0.80
2023-02-27T19:21:32.727Z,0.90
2023-02-27T19:23:59.398Z,0.80
2023-02-27T19:26:27.407Z,1.07
2023-02-27T19:28:55.700Z,0.97
2023-02-27T19:31:25.997Z,0.80
2023-02-27T19:33:52.700Z,0.80
2023-02-27T19:36:21.806Z,0.80
2023-02-27T19:38:48.860Z,0.70
2023-02-27T19:41:19.682Z,0.80
2023-02-27T19:43:47.405Z,0.80
2023-02-27T19:46:16.991Z,0.77
2023-02-27T19:48:43.628Z,0.90
2023-02-27T19:51:12.305Z,0.80
2023-02-27T19:53:39.953Z,1.00
2023-02-27T19:56:11.159Z,0.90
2023-02-27T19:58:39.333Z,0.80
2023-02-27T20:01:06.804Z,0.77
2023-02-27T20:03:35.154Z,0.70
2023-02-27T20:06:06.446Z,1.00
2023-02-27T20:08:34.198Z,0.90
2023-02-27T20:11:05.173Z,0.90
2023-02-27T20:13:32.222Z,1.00
2023-02-27T20:16:05.102Z,0.80
2023-02-27T20:18:33.190Z,1.10
2023-02-27T20:21:06.507Z,0.80
2023-02-27T20:23:36.251Z,0.90
2023-02-27T20:26:13.357Z,0.83
2023-02-27T20:28:40.997Z,1.00
2023-02-27T20:31:12.986Z,1.20
2023-02-27T20:33:40.612Z,1.07
2023-02-27T20:36:09.623Z,0.90
2023-02-27T20:38:40.709Z,0.70
2023-02-27T20:41:19.354Z,0.90
2023-02-27T20:43:46.336Z,0.90
2023-02-27T20:46:16.204Z,1.00
2023-02-27T20:48:43.624Z,1.10
2023-02-27T20:51:13.561Z,1.00
2023-02-27T20:53:41.921Z,1.17
2023-02-27T20:56:09.616Z,1.20
2023-02-27T20:58:37.669Z,1.00
2023-02-27T21:01:12.006Z,1.30
2023-02-27T21:03:40.540Z,1.00
2023-02-27T21:06:10.000Z,1.00
2023-02-27T21:08:39.074Z,1.10
2023-02-27T21:11:11.202Z,1.10
2023-02-27T21:13:38.489Z,1.23
2023-02-27T21:16:07.403Z,1.00
2023-02-27T21:18:35.351Z,1.00
2023-02-27T21:21:07.548Z,1.13
2023-02-27T21:23:41.076Z,1.10
2023-02-27T21:26:19.863Z,1.27
2023-02-27T21:28:54.409Z,1.10
2023-02-27T21:31:23.121Z,1.03
2023-02-27T21:33:51.074Z,1.07
2023-02-27T21:36:18.239Z,1.10
2023-02-27T21:38:49.254Z,1.00
2023-02-27T21:41:16.987Z,1.30
2023-02-27T21:43:44.043Z,1.30
2023-02-27T21:46:12.868Z,1.27
2023-02-27T21:48:40.012Z,1.30
2023-02-27T21:51:07.015Z,1.27
2023-02-27T21:53:36.596Z,1.33
2023-02-27T21:56:05.876Z,1.50
2023-02-27T21:58:33.689Z,1.37
2023-02-27T22:01:01.988Z,1.10
2023-02-27T22:03:35.266Z,1.20
2023-02-27T22:06:02.625Z,1.20
2023-02-27T22:08:29.257Z,1.40
2023-02-27T22:11:00.209Z,1.30
2023-02-27T22:13:27.599Z,1.20
2023-02-27T22:15:54.550Z,1.50
2023-02-27T22:18:21.237Z,1.60
2023-02-27T22:20:48.077Z,1.40
2023-02-27T22:23:14.909Z,1.40
2023-02-27T22:25:41.591Z,1.40
2023-02-27T22:28:08.264Z,1.40
2023-02-27T22:30:35.008Z,1.30
2023-02-27T22:33:01.627Z,1.60
2023-02-27T22:35:28.318Z,1.50
2023-02-27T22:37:54.952Z,1.30
2023-02-27T22:40:21.612Z,1.50
2023-02-27T22:42:48.191Z,1.60
2023-02-27T22:45:15.264Z,1.30
2023-02-27T22:47:41.923Z,1.63
2023-02-27T22:50:09.367Z,1.60
2023-02-27T22:52:36.742Z,1.77
2023-02-27T22:55:03.599Z,1.60
2023-02-27T22:57:30.290Z,1.80
2023-02-27T22:59:56.872Z,1.50
2023-02-27T23:02:23.530Z,1.43
2023-02-27T23:04:50.094Z,1.80
2023-02-27T23:07:16.669Z,1.83
2023-02-27T23:09:43.888Z,1.60
2023-02-27T23:12:10.585Z,1.70
2023-02-27T23:14:37.253Z,1.67
2023-02-27T23:17:03.893Z,1.67
2023-02-27T23:19:30.928Z,2.00
2023-02-27T23:22:07.000Z,1.70
2023-02-27T23:24:33.633Z,1.70
2023-02-27T23:27:00.201Z,1.97
2023-02-27T23:29:26.861Z,1.67
2023-02-27T23:31:53.711Z,1.90
2023-02-27T23:34:20.377Z,1.80
2023-02-27T23:36:47.054Z,1.80
2023-02-27T23:39:13.629Z,1.70
2023-02-27T23:41:40.519Z,1.90
2023-02-27T23:44:25.974Z,1.90
2023-02-27T23:46:52.998Z,1.70
2023-02-27T23:49:20.650Z,1.70
2023-02-27T23:51:47.420Z,2.00
2023-02-27T23:54:14.575Z,2.23
2023-02-27T23:56:43.042Z,1.90
2023-02-27T23:59:09.698Z,2.00
